createdAt,value
2022-10-11T00:04:36.385Z,83.8
2022-10-11T00:09:36.404Z,84.4
2022-10-11T00:14:36.414Z,84.6
2022-10-11T00:19:36.393Z,84.8
2022-10-11T00:24:36.396Z,85.1
2022-10-11T00:29:36.398Z,85.2
2022-10-11T00:34:36.384Z,85.5
2022-10-11T00:39:36.392Z,86.0
2022-10-11T00:44:36.403Z,86.3
2022-10-11T00:49:36.380Z,86.5
2022-10-11T00:54:36.395Z,86.9
2022-10-11T00:59:36.421Z,86.8
2022-10-11T01:04:36.391Z,86.8
2022-10-11T01:09:36.396Z,87.0
2022-10-11T01:14:36.402Z,87.2
2022-10-11T01:19:36.401Z,87.3
2022-10-11T01:24:36.392Z,87.4
2022-10-11T01:29:36.472Z,87.3
2022-10-11T01:34:36.401Z,87.3
2022-10-11T01:39:36.379Z,87.3
2022-10-11T01:44:36.406Z,87.3
2022-10-11T01:49:36.411Z,87.2
2022-10-11T01:55:03.914Z,87.3
2022-10-11T01:59:36.421Z,87.3
2022-10-11T02:04:36.407Z,87.3
2022-10-11T02:09:36.403Z,87.3
2022-10-11T02:14:36.412Z,87.2
2022-10-11T02:19:36.413Z,87.1
2022-10-11T02:24:36.417Z,87.1
2022-10-11T02:29:36.427Z,87.3
2022-10-11T02:34:36.425Z,87.6
2022-10-11T02:39:36.418Z,87.8
2022-10-11T02:44:36.432Z,88.0
2022-10-11T02:49:36.403Z,88.2
2022-10-11T02:54:36.436Z,88.4
2022-10-11T02:59:36.436Z,88.7
2022-10-11T03:04:36.419Z,89.0
2022-10-11T03:09:36.454Z,89.1
2022-10-11T03:14:36.430Z,89.3
2022-10-11T03:19:36.440Z,89.6
2022-10-11T03:24:36.437Z,89.6
2022-10-11T03:29:36.444Z,89.7
2022-10-11T03:34:36.426Z,89.9
2022-10-11T03:39:36.445Z,90.0
2022-10-11T03:44:36.445Z,90.1
2022-10-11T03:49:41.172Z,90.2
2022-10-11T03:54:36.461Z,90.4
2022-10-11T03:59:36.447Z,90.6
2022-10-11T04:04:36.451Z,90.7
2022-10-11T04:09:36.490Z,90.8
2022-10-11T04:14:36.478Z,91.0
2022-10-11T04:19:36.445Z,91.2
2022-10-11T04:24:36.477Z,91.4
2022-10-11T04:29:36.457Z,91.5
2022-10-11T04:34:36.463Z,91.6
2022-10-11T04:39:36.472Z,91.8
2022-10-11T04:44:36.475Z,91.9
2022-10-11T04:49:36.468Z,91.9
2022-10-11T04:54:36.488Z,92.0
2022-10-11T04:59:36.473Z,91.9
2022-10-11T05:04:36.478Z,92.0
2022-10-11T05:09:36.484Z,92.2
2022-10-11T05:14:36.498Z,92.5
2022-10-11T05:19:36.468Z,92.7
2022-10-11T05:24:36.486Z,92.8
2022-10-11T05:29:36.490Z,93.1
2022-10-11T05:34:36.493Z,93.0
2022-10-11T05:39:36.495Z,93.2
2022-10-11T05:44:36.484Z,93.3
2022-10-11T05:49:36.495Z,93.5
2022-10-11T05:54:36.501Z,93.7
2022-10-11T05:59:36.485Z,94.0
2022-10-11T06:04:36.496Z,94.0
2022-10-11T06:09:36.506Z,94.5
2022-10-11T06:14:36.499Z,94.6
2022-10-11T06:19:36.507Z,94.8
2022-10-11T06:24:36.506Z,94.9
2022-10-11T06:29:36.538Z,95.0
2022-10-11T06:34:36.500Z,95.3
2022-10-11T06:39:36.498Z,95.5
2022-10-11T06:44:36.502Z,95.7
2022-10-11T06:49:36.507Z,95.5
2022-10-11T06:54:39.106Z,95.6
2022-10-11T06:59:36.521Z,95.8
2022-10-11T07:04:36.498Z,95.8
2022-10-11T07:09:36.536Z,96.0
2022-10-11T07:14:36.517Z,96.5
2022-10-11T07:19:36.514Z,96.6
2022-10-11T07:24:36.503Z,96.7
2022-10-11T07:29:36.528Z,96.8
2022-10-11T07:34:36.510Z,96.9
2022-10-11T07:39:36.524Z,96.9
2022-10-11T07:44:36.517Z,97.9
2022-10-11T07:49:36.516Z,97.9
2022-10-11T07:54:36.511Z,96.6
2022-10-11T07:59:36.529Z,95.5
2022-10-11T08:04:36.515Z,94.1
2022-10-11T08:09:36.572Z,93.2
2022-10-11T08:14:36.513Z,92.3
2022-10-11T08:19:36.530Z,91.0
2022-10-11T08:24:38.398Z,90.9
2022-10-11T08:29:36.506Z,90.3
2022-10-11T08:34:36.559Z,88.8
2022-10-11T08:39:36.549Z,87.5
2022-10-11T08:44:58.330Z,86.6
2022-10-11T08:49:36.522Z,84.9
2022-10-11T08:54:36.539Z,83.2
2022-10-11T08:59:36.528Z,81.6
2022-10-11T09:04:36.526Z,80.8
2022-10-11T09:09:36.583Z,80.7
2022-10-11T09:14:36.518Z,80.7
2022-10-11T09:19:36.537Z,80.8
2022-10-11T09:24:36.526Z,80.8
2022-10-11T09:29:36.530Z,80.6
2022-10-11T09:34:36.518Z,81.0
2022-10-11T09:39:36.542Z,81.5
2022-10-11T09:44:36.524Z,81.2
2022-10-11T09:49:36.548Z,80.7
2022-10-11T09:54:36.541Z,81.2
2022-10-11T09:59:36.543Z,81.4
2022-10-11T10:04:36.539Z,81.7
2022-10-11T10:09:36.545Z,82.6
2022-10-11T10:14:36.548Z,82.9
2022-10-11T10:19:38.914Z,82.9
2022-10-11T10:24:36.546Z,82.1
2022-10-11T10:29:36.559Z,81.4
2022-10-11T10:34:36.537Z,80.8
2022-10-11T10:39:36.554Z,80.8
2022-10-11T10:44:36.533Z,80.9
2022-10-11T10:49:53.993Z,80.3
2022-10-11T10:54:36.547Z,79.8
2022-10-11T10:59:36.555Z,79.9
2022-10-11T11:04:36.535Z,79.9
2022-10-11T11:09:36.561Z,79.7
2022-10-11T11:14:36.536Z,79.3
2022-10-11T11:19:36.538Z,79.3
2022-10-11T11:24:36.543Z,79.0
2022-10-11T11:29:36.543Z,79.0
2022-10-11T11:34:36.562Z,79.2
2022-10-11T11:39:36.561Z,79.0
2022-10-11T11:44:36.589Z,78.7
2022-10-11T11:49:36.611Z,78.2
2022-10-11T11:54:36.540Z,77.8
2022-10-11T11:59:36.559Z,76.9
2022-10-11T12:04:36.549Z,76.4
2022-10-11T12:09:36.555Z,75.8
2022-10-11T12:14:36.555Z,75.2
2022-10-11T12:19:36.564Z,74.7
2022-10-11T12:24:36.556Z,74.1
2022-10-11T12:29:36.564Z,73.8
2022-10-11T12:34:36.640Z,73.7
2022-10-11T12:39:36.563Z,73.8
2022-10-11T12:49:36.565Z,73.3
2022-10-11T12:54:37.436Z,73.0
2022-10-11T12:59:36.616Z,73.0
2022-10-11T13:04:36.582Z,72.7
2022-10-11T13:09:36.604Z,72.4
2022-10-11T13:14:36.608Z,71.6
2022-10-11T13:19:36.595Z,71.4
2022-10-11T13:24:36.573Z,71.3
2022-10-11T13:29:36.583Z,71.1
2022-10-11T13:34:36.583Z,71.3
2022-10-11T13:39:36.593Z,71.6
2022-10-11T13:44:36.585Z,71.8
2022-10-11T13:49:36.600Z,71.8
2022-10-11T13:54:36.581Z,71.9
2022-10-11T13:59:36.597Z,71.9
2022-10-11T14:04:36.585Z,71.8
2022-10-11T14:09:36.614Z,71.0
2022-10-11T14:14:36.600Z,68.7
2022-10-11T14:19:36.592Z,67.4
2022-10-11T14:24:36.645Z,66.2
2022-10-11T14:29:36.604Z,65.4
2022-10-11T14:34:36.635Z,64.5
2022-10-11T14:39:36.684Z,64.2
2022-10-11T14:44:36.611Z,63.8
2022-10-11T14:49:36.613Z,63.6
2022-10-11T14:54:36.609Z,63.3
2022-10-11T14:59:36.616Z,63.0
2022-10-11T15:04:36.635Z,62.9
2022-10-11T15:09:36.613Z,62.6
2022-10-11T15:14:36.631Z,62.5
2022-10-11T15:19:36.630Z,62.7
2022-10-11T15:24:36.626Z,62.9
2022-10-11T15:29:36.615Z,63.4
2022-10-11T15:34:36.635Z,63.6
2022-10-11T15:39:36.628Z,63.9
2022-10-11T15:44:36.635Z,64.0
2022-10-11T15:49:36.631Z,64.2
2022-10-11T15:54:36.643Z,64.5
2022-10-11T15:59:36.647Z,64.8
2022-10-11T16:04:36.646Z,64.9
2022-10-11T16:09:36.650Z,65.1
2022-10-11T16:14:36.661Z,65.4
2022-10-11T16:19:36.644Z,65.8
2022-10-11T16:24:36.669Z,66.6
2022-10-11T16:29:36.684Z,67.3
2022-10-11T16:34:36.660Z,67.7
2022-10-11T16:39:36.656Z,68.1
2022-10-11T16:44:36.669Z,68.4
2022-10-11T16:49:36.668Z,68.6
2022-10-11T16:54:36.656Z,68.5
2022-10-11T16:59:36.673Z,68.5
2022-10-11T17:04:36.665Z,68.8
2022-10-11T17:09:40.386Z,69.1
2022-10-11T17:14:36.727Z,69.4
2022-10-11T17:19:39.237Z,69.6
2022-10-11T17:24:36.747Z,69.7
2022-10-11T17:29:36.697Z,69.7
2022-10-11T17:34:36.683Z,70.0
2022-10-11T17:39:36.667Z,70.3
2022-10-11T17:44:36.687Z,70.6
2022-10-11T17:49:36.688Z,71.1
2022-10-11T17:54:36.698Z,71.5
2022-10-11T17:59:36.701Z,71.8
2022-10-11T18:04:36.685Z,72.1
2022-10-11T18:09:36.698Z,72.5
2022-10-11T18:14:36.704Z,72.9
2022-10-11T18:19:36.716Z,73.2
2022-10-11T18:24:36.696Z,73.5
2022-10-11T18:29:36.704Z,73.7
2022-10-11T18:34:36.713Z,74.0
2022-10-11T18:39:36.699Z,74.4
2022-10-11T18:44:36.714Z,74.9
2022-10-11T18:49:36.715Z,75.1
2022-10-11T18:54:36.710Z,75.3
2022-10-11T18:59:36.718Z,75.5
2022-10-11T19:04:36.738Z,75.7
2022-10-11T19:09:36.730Z,75.9
2022-10-11T19:14:36.725Z,76.1
2022-10-11T19:19:36.726Z,76.3
2022-10-11T19:24:36.732Z,76.5
2022-10-11T19:29:36.749Z,76.6
2022-10-11T19:34:36.724Z,77.0
2022-10-11T19:39:36.741Z,77.1
2022-10-11T19:44:38.882Z,77.3
2022-10-11T19:49:36.742Z,77.5
2022-10-11T19:54:36.740Z,77.6
2022-10-11T19:59:36.747Z,77.9
2022-10-11T20:04:52.580Z,78.2
2022-10-11T20:09:36.755Z,78.5
2022-10-11T20:14:36.758Z,78.9
2022-10-11T20:19:36.761Z,79.2
2022-10-11T20:24:36.765Z,79.5
2022-10-11T20:29:36.742Z,79.9
2022-10-11T20:34:36.768Z,80.2
2022-10-11T20:39:36.765Z,80.5
2022-10-11T20:44:36.773Z,80.7
2022-10-11T20:49:36.794Z,80.8
2022-10-11T20:54:36.777Z,80.9
2022-10-11T20:59:36.778Z,81.1
2022-10-11T21:04:36.791Z,81.3
2022-10-11T21:09:36.770Z,81.5
2022-10-11T21:14:36.789Z,81.2
2022-10-11T21:19:36.793Z,80.6
2022-10-11T21:24:36.799Z,79.9
2022-10-11T21:29:36.791Z,79.4
2022-10-11T21:34:36.798Z,78.8
2022-10-11T21:39:36.804Z,78.4
2022-10-11T21:44:36.798Z,78.0
2022-10-11T21:49:36.809Z,77.8
2022-10-11T21:54:36.796Z,77.6
2022-10-11T21:59:36.809Z,77.4
2022-10-11T22:04:36.860Z,77.3
2022-10-11T22:09:36.790Z,77.2
2022-10-11T22:14:36.812Z,77.0
2022-10-11T22:19:36.812Z,76.8
2022-10-11T22:24:36.810Z,76.7
2022-10-11T22:29:36.809Z,76.7
2022-10-11T22:34:36.810Z,76.7
2022-10-11T22:39:36.808Z,76.7
2022-10-11T22:44:36.821Z,76.8
2022-10-11T22:49:36.815Z,76.7
2022-10-11T22:54:36.831Z,76.7
2022-10-11T22:59:36.809Z,76.9
2022-10-11T23:04:36.819Z,77.1
2022-10-11T23:09:36.816Z,77.3
2022-10-11T23:14:36.833Z,77.6
2022-10-11T23:19:36.857Z,77.6
2022-10-11T23:24:36.834Z,77.7
2022-10-11T23:29:36.838Z,77.8
2022-10-11T23:34:36.841Z,77.9
2022-10-11T23:39:36.838Z,78.2
2022-10-11T23:44:36.851Z,78.2
2022-10-11T23:49:36.846Z,78.5
2022-10-11T23:54:36.870Z,78.7
2022-10-11T23:59:36.840Z,78.9
